createdAt,value
2017-10-14T00:00:02.397Z,6.32
2017-10-14T00:02:29.923Z,8.15
2017-10-14T00:04:57.634Z,7.00
2017-10-14T00:07:25.606Z,7.50
2017-10-14T00:09:54.288Z,6.43
2017-10-14T00:12:22.296Z,6.10
2017-10-14T00:14:50.107Z,6.90
2017-10-14T00:17:17.624Z,5.93
2017-10-14T00:19:45.144Z,7.43
2017-10-14T00:22:13.087Z,7.72
2017-10-14T00:24:40.602Z,6.45
2017-10-14T00:27:08.124Z,5.82
2017-10-14T00:29:35.878Z,5.90
2017-10-14T00:32:03.552Z,7.25
2017-10-14T00:34:31.070Z,7.35
2017-10-14T00:36:58.757Z,7.60
2017-10-14T00:39:26.274Z,6.37
2017-10-14T00:41:53.837Z,7.60
2017-10-14T00:44:21.636Z,7.55
2017-10-14T00:46:49.155Z,7.30
2017-10-14T00:49:16.676Z,7.07
2017-10-14T00:51:45.434Z,7.22
2017-10-14T00:54:12.951Z,6.07
2017-10-14T00:56:40.575Z,6.25
2017-10-14T00:59:08.133Z,6.65
2017-10-14T01:01:35.650Z,7.95
2017-10-14T01:04:03.319Z,7.62
2017-10-14T01:06:31.204Z,7.53
2017-10-14T01:08:58.729Z,8.90
2017-10-14T01:11:26.544Z,8.25
2017-10-14T01:13:54.131Z,7.78
2017-10-14T01:16:21.650Z,7.90
2017-10-14T01:18:49.168Z,6.68
2017-10-14T01:21:16.734Z,8.35
2017-10-14T01:23:44.960Z,7.28
2017-10-14T01:26:12.476Z,6.65
2017-10-14T01:28:40.410Z,8.07
2017-10-14T01:31:07.926Z,7.68
2017-10-14T01:33:35.479Z,8.07
2017-10-14T01:36:04.374Z,6.55
2017-10-14T01:38:31.902Z,8.60
2017-10-14T01:40:59.428Z,7.03
2017-10-14T01:43:27.158Z,7.43
2017-10-14T01:45:54.675Z,7.65
2017-10-14T01:48:22.190Z,8.80
2017-10-14T01:50:49.748Z,7.45
2017-10-14T01:53:17.272Z,6.50
2017-10-14T01:55:44.791Z,6.90
2017-10-14T01:58:12.502Z,8.23
2017-10-14T02:00:40.030Z,7.60
2017-10-14T02:03:07.559Z,7.55
2017-10-14T02:05:35.280Z,6.37
2017-10-14T02:08:02.883Z,6.97
2017-10-14T02:10:30.403Z,6.47
2017-10-14T02:12:57.995Z,7.37
2017-10-14T02:15:25.535Z,6.85
2017-10-14T02:17:53.058Z,6.28
2017-10-14T02:20:20.844Z,6.50
2017-10-14T02:22:48.368Z,8.35
2017-10-14T02:25:15.889Z,5.78
2017-10-14T02:27:43.473Z,6.15
2017-10-14T02:30:10.992Z,7.72
2017-10-14T02:32:38.531Z,6.50
2017-10-14T02:35:06.423Z,5.60
2017-10-14T02:37:33.943Z,6.53
2017-10-14T02:40:01.469Z,6.65
2017-10-14T02:42:29.028Z,5.78
2017-10-14T02:44:56.552Z,5.60
2017-10-14T02:47:24.076Z,6.82
2017-10-14T02:49:51.858Z,6.95
2017-10-14T02:52:19.388Z,6.40
2017-10-14T02:54:46.916Z,7.65
2017-10-14T02:57:14.643Z,7.57
2017-10-14T02:59:42.163Z,6.55
2017-10-14T03:02:09.679Z,5.68
2017-10-14T03:04:37.420Z,5.90
2017-10-14T03:07:04.947Z,6.30
2017-10-14T03:09:32.484Z,5.55
2017-10-14T03:12:00.199Z,6.75
2017-10-14T03:14:27.724Z,6.30
2017-10-14T03:16:55.336Z,6.95
2017-10-14T03:19:23.085Z,6.70
2017-10-14T03:21:50.614Z,5.85
2017-10-14T03:24:18.131Z,6.07
2017-10-14T03:26:45.939Z,7.28
2017-10-14T03:29:13.459Z,7.40
2017-10-14T03:31:40.992Z,6.90
2017-10-14T03:34:09.459Z,5.60
2017-10-14T03:36:37.012Z,7.25
2017-10-14T03:39:04.536Z,8.27
2017-10-14T03:41:32.339Z,7.45
2017-10-14T03:43:59.863Z,7.12
2017-10-14T03:46:27.383Z,7.00
2017-10-14T03:48:55.187Z,8.23
2017-10-14T03:51:22.802Z,8.55
2017-10-14T03:53:50.324Z,7.30
2017-10-14T03:56:17.899Z,8.07
2017-10-14T03:58:45.429Z,7.60
2017-10-14T04:01:12.976Z,6.85
2017-10-14T04:03:40.683Z,6.70
2017-10-14T04:06:08.215Z,5.70
2017-10-14T04:08:35.730Z,7.10
2017-10-14T04:11:03.463Z,7.12
2017-10-14T04:13:30.979Z,7.95
2017-10-14T04:15:58.496Z,7.07
2017-10-14T04:18:26.152Z,6.82
2017-10-14T04:20:53.676Z,8.75
2017-10-14T04:23:21.196Z,7.90
2017-10-14T04:25:48.920Z,7.80
2017-10-14T04:28:16.460Z,8.18
2017-10-14T04:30:43.987Z,7.95
2017-10-14T04:33:11.799Z,7.15
2017-10-14T04:35:39.320Z,8.07
2017-10-14T04:38:06.845Z,9.65
2017-10-14T04:40:34.595Z,8.60
2017-10-14T04:43:02.115Z,9.95
2017-10-14T04:45:29.642Z,9.00
2017-10-14T04:47:57.387Z,8.77
2017-10-14T04:50:24.913Z,8.25
2017-10-14T04:52:52.431Z,8.80
2017-10-14T04:55:20.138Z,9.05
2017-10-14T04:57:47.654Z,9.18
2017-10-14T05:00:15.177Z,8.23
2017-10-14T05:02:42.926Z,8.23
2017-10-14T05:05:10.528Z,8.10
2017-10-14T05:07:38.080Z,8.57
2017-10-14T05:10:05.723Z,7.90
2017-10-14T05:12:33.251Z,8.10
2017-10-14T05:15:00.824Z,7.22
2017-10-14T05:17:28.585Z,8.15
2017-10-14T05:19:56.119Z,8.70
2017-10-14T05:22:23.660Z,8.00
2017-10-14T05:24:51.211Z,7.18
2017-10-14T05:27:18.727Z,7.47
2017-10-14T05:29:46.253Z,7.85
2017-10-14T05:32:13.826Z,8.95
2017-10-14T05:34:41.354Z,7.03
2017-10-14T05:37:08.891Z,8.00
2017-10-14T05:39:36.616Z,8.77
2017-10-14T05:42:04.162Z,7.97
2017-10-14T05:44:31.701Z,8.60
2017-10-14T05:46:59.500Z,8.35
2017-10-14T05:49:27.031Z,7.87
2017-10-14T05:51:54.560Z,8.65
2017-10-14T05:54:22.272Z,8.65
2017-10-14T05:56:49.811Z,8.38
2017-10-14T05:59:17.335Z,8.13
2017-10-14T06:01:44.899Z,8.95
2017-10-14T06:04:12.423Z,9.77
2017-10-14T06:06:39.940Z,8.35
2017-10-14T06:09:07.838Z,10.07
2017-10-14T06:11:35.365Z,8.52
2017-10-14T06:14:02.895Z,8.90
2017-10-14T06:16:30.615Z,9.13
2017-10-14T06:18:58.126Z,7.93
2017-10-14T06:21:25.666Z,9.40
2017-10-14T06:23:53.395Z,9.20
2017-10-14T06:26:20.914Z,8.50
2017-10-14T06:28:48.440Z,9.40
2017-10-14T06:31:16.207Z,10.00
2017-10-14T06:33:43.736Z,9.75
2017-10-14T06:36:11.259Z,9.75
2017-10-14T06:38:38.955Z,9.27
2017-10-14T06:41:06.531Z,10.10
2017-10-14T06:43:34.059Z,10.43
2017-10-14T06:46:01.631Z,11.15
2017-10-14T06:48:29.167Z,12.77
2017-10-14T06:50:56.694Z,13.95
2017-10-14T06:53:24.548Z,13.93
2017-10-14T06:55:52.081Z,12.32
2017-10-14T06:58:19.607Z,13.00
2017-10-14T07:00:47.264Z,14.87
2017-10-14T07:03:14.788Z,13.95
2017-10-14T07:05:42.318Z,14.70
2017-10-14T07:08:10.189Z,14.52
2017-10-14T07:10:37.753Z,14.80
2017-10-14T07:13:05.363Z,13.38
2017-10-14T07:15:33.178Z,13.07
2017-10-14T07:18:00.699Z,11.45
2017-10-14T07:20:28.222Z,14.45
2017-10-14T07:22:55.948Z,14.18
2017-10-14T07:25:23.471Z,14.02
2017-10-14T07:27:51.067Z,14.48
2017-10-14T07:30:18.845Z,14.23
2017-10-14T07:32:46.367Z,14.45
2017-10-14T07:35:13.895Z,13.70
2017-10-14T07:37:42.132Z,12.30
2017-10-14T07:40:09.677Z,11.70
2017-10-14T07:42:37.212Z,13.45
2017-10-14T07:45:04.892Z,11.68
2017-10-14T07:47:32.700Z,12.43
2017-10-14T07:50:00.284Z,13.02
2017-10-14T07:52:27.900Z,14.00
2017-10-14T07:54:55.428Z,12.83
2017-10-14T07:57:23.478Z,13.48
2017-10-14T07:59:51.171Z,11.43
2017-10-14T08:02:18.701Z,11.77
2017-10-14T08:04:46.227Z,12.47
2017-10-14T08:07:13.796Z,12.60
2017-10-14T08:09:41.348Z,12.30
2017-10-14T08:12:08.899Z,12.43
2017-10-14T08:14:36.624Z,11.57
2017-10-14T08:17:04.146Z,12.73
2017-10-14T08:19:31.667Z,10.50
2017-10-14T08:21:59.235Z,10.40
2017-10-14T08:24:26.761Z,11.30
2017-10-14T08:26:54.280Z,9.67
2017-10-14T08:29:21.872Z,11.73
2017-10-14T08:31:49.509Z,10.43
2017-10-14T08:34:17.117Z,11.10
2017-10-14T08:36:44.688Z,10.80
2017-10-14T08:39:12.220Z,10.50
2017-10-14T08:41:39.769Z,10.60
2017-10-14T08:44:07.711Z,8.17
2017-10-14T08:46:35.244Z,10.03
2017-10-14T08:49:02.785Z,9.60
2017-10-14T08:51:30.371Z,10.50
2017-10-14T08:53:58.091Z,12.63
2017-10-14T08:56:25.683Z,9.47
2017-10-14T08:58:53.335Z,10.50
2017-10-14T09:01:20.869Z,8.80
2017-10-14T09:03:48.459Z,10.40
2017-10-14T09:06:16.398Z,11.27
2017-10-14T09:08:43.932Z,11.10
2017-10-14T09:11:11.470Z,10.90
2017-10-14T09:13:39.079Z,10.43
2017-10-14T09:16:06.604Z,10.20
2017-10-14T09:18:34.119Z,9.87
2017-10-14T09:21:01.879Z,10.80
2017-10-14T09:23:29.399Z,10.13
2017-10-14T09:25:56.927Z,10.20
2017-10-14T09:28:24.734Z,9.30
2017-10-14T09:30:52.251Z,10.00
2017-10-14T09:33:19.772Z,9.40
2017-10-14T09:35:47.695Z,9.73
2017-10-14T09:38:15.702Z,9.50
2017-10-14T09:40:43.260Z,9.73
2017-10-14T09:43:11.008Z,9.87
2017-10-14T09:45:38.527Z,8.47
2017-10-14T09:48:06.065Z,7.60
2017-10-14T09:50:33.790Z,8.03
2017-10-14T09:53:01.326Z,8.43
2017-10-14T09:55:28.853Z,8.43
2017-10-14T09:57:56.482Z,8.90
2017-10-14T10:00:24.164Z,9.17
2017-10-14T10:02:51.743Z,8.87
2017-10-14T10:05:19.485Z,8.10
2017-10-14T10:07:47.007Z,8.10
2017-10-14T10:10:14.535Z,8.37
2017-10-14T10:12:42.244Z,8.10
2017-10-14T10:15:09.770Z,7.70
2017-10-14T10:17:37.308Z,8.27
2017-10-14T10:20:04.896Z,8.70
2017-10-14T10:22:32.416Z,8.53
2017-10-14T10:24:59.942Z,8.30
2017-10-14T10:27:27.514Z,8.03
2017-10-14T10:29:55.980Z,8.70
2017-10-14T10:32:23.967Z,8.77
2017-10-14T10:34:51.719Z,7.50
2017-10-14T10:37:19.248Z,7.93
2017-10-14T10:39:46.776Z,8.13
2017-10-14T10:42:14.576Z,8.50
2017-10-14T10:44:42.129Z,7.10
2017-10-14T10:47:09.816Z,7.47
2017-10-14T10:49:37.385Z,6.53
2017-10-14T10:52:04.907Z,7.10
2017-10-14T10:54:32.439Z,6.83
2017-10-14T10:57:00.131Z,7.30
2017-10-14T10:59:27.695Z,6.77
2017-10-14T11:01:55.288Z,6.20
2017-10-14T11:04:23.019Z,7.07
2017-10-14T11:06:50.552Z,6.87
2017-10-14T11:09:18.079Z,6.33
2017-10-14T11:11:45.634Z,6.10
2017-10-14T11:14:13.160Z,6.37
2017-10-14T11:16:40.700Z,6.43
2017-10-14T11:19:08.474Z,6.17
2017-10-14T11:21:35.983Z,5.50
2017-10-14T11:24:03.503Z,6.00
2017-10-14T11:26:31.066Z,6.53
2017-10-14T11:28:58.580Z,6.53
2017-10-14T11:31:26.103Z,5.93
2017-10-14T11:33:53.831Z,5.93
2017-10-14T11:36:21.355Z,5.90
2017-10-14T11:38:48.875Z,5.50
2017-10-14T11:41:16.451Z,5.87
2017-10-14T11:43:43.982Z,5.70
2017-10-14T11:46:11.504Z,6.20
2017-10-14T11:48:39.509Z,5.70
2017-10-14T11:51:07.032Z,5.87
2017-10-14T11:53:34.556Z,6.10
2017-10-14T11:56:02.219Z,6.00
2017-10-14T11:58:29.748Z,6.47
2017-10-14T12:00:57.274Z,6.10
2017-10-14T12:03:24.834Z,6.30
2017-10-14T12:05:52.355Z,6.80
2017-10-14T12:08:19.887Z,6.87
2017-10-14T12:10:47.741Z,5.83
2017-10-14T12:13:15.289Z,7.40
2017-10-14T12:15:42.819Z,6.70
2017-10-14T12:18:10.506Z,6.50
2017-10-14T12:20:38.482Z,6.93
2017-10-14T12:23:06.904Z,8.30
2017-10-14T12:25:35.180Z,7.00
2017-10-14T12:28:03.528Z,7.60
2017-10-14T12:30:31.190Z,6.97
2017-10-14T12:32:58.938Z,8.20
2017-10-14T12:35:26.470Z,7.73
2017-10-14T12:37:54.010Z,8.10
2017-10-14T12:40:21.720Z,7.87
2017-10-14T12:42:50.140Z,7.47
2017-10-14T12:45:17.676Z,8.73
2017-10-14T12:47:45.264Z,7.40
2017-10-14T12:50:12.796Z,8.07
2017-10-14T12:52:40.321Z,7.00
2017-10-14T12:55:07.899Z,7.83
2017-10-14T12:57:35.420Z,8.07
2017-10-14T13:00:03.355Z,7.63
2017-10-14T13:02:32.120Z,7.73
2017-10-14T13:05:00.504Z,8.50
2017-10-14T13:07:28.036Z,7.47
2017-10-14T13:09:55.698Z,8.33
2017-10-14T13:12:23.668Z,6.93
2017-10-14T13:14:51.196Z,7.60
2017-10-14T13:17:18.758Z,7.17
2017-10-14T13:19:46.285Z,8.20
2017-10-14T13:22:13.807Z,7.37
2017-10-14T13:24:41.669Z,7.93
2017-10-14T13:27:09.191Z,6.70
2017-10-14T13:29:36.731Z,7.10
2017-10-14T13:32:04.452Z,7.43
2017-10-14T13:34:31.999Z,6.20
2017-10-14T13:36:59.523Z,6.47
2017-10-14T13:39:27.230Z,7.10
2017-10-14T13:41:54.759Z,6.70
2017-10-14T13:44:22.285Z,7.13
2017-10-14T13:46:50.022Z,7.37
2017-10-14T13:49:17.552Z,6.60
2017-10-14T13:51:45.099Z,6.23
2017-10-14T13:54:13.395Z,5.90
2017-10-14T13:56:40.916Z,6.97
2017-10-14T13:59:09.466Z,6.37
2017-10-14T14:01:37.328Z,6.47
2017-10-14T14:04:04.851Z,6.50
2017-10-14T14:06:32.382Z,7.67
2017-10-14T14:09:01.343Z,6.10
2017-10-14T14:11:28.870Z,7.37
2017-10-14T14:13:56.398Z,7.90
2017-10-14T14:16:24.556Z,6.83
2017-10-14T14:18:52.109Z,8.33
2017-10-14T14:21:19.654Z,6.90
2017-10-14T14:23:47.388Z,7.23
2017-10-14T14:26:14.933Z,6.40
2017-10-14T14:28:43.448Z,6.00
2017-10-14T14:31:11.032Z,6.50
2017-10-14T14:33:38.724Z,5.90
2017-10-14T14:36:06.308Z,5.30
2017-10-14T14:38:34.279Z,6.67
2017-10-14T14:41:01.830Z,6.30
2017-10-14T14:43:29.384Z,6.30
2017-10-14T14:45:57.043Z,5.57
2017-10-14T14:48:24.645Z,5.20
2017-10-14T14:50:52.189Z,6.60
2017-10-14T14:53:20.678Z,5.60
2017-10-14T14:55:48.247Z,6.37
2017-10-14T14:58:15.796Z,6.43
2017-10-14T15:00:43.689Z,5.87
2017-10-14T15:03:11.224Z,6.07
2017-10-14T15:05:38.743Z,5.43
2017-10-14T15:08:06.435Z,5.50
2017-10-14T15:10:33.960Z,6.20
2017-10-14T15:13:01.480Z,5.60
2017-10-14T15:15:29.127Z,5.50
2017-10-14T15:17:57.600Z,6.03
2017-10-14T15:20:25.134Z,5.47
2017-10-14T15:22:52.740Z,5.13
2017-10-14T15:25:21.398Z,5.77
2017-10-14T15:27:49.012Z,6.60
2017-10-14T15:30:16.717Z,6.20
2017-10-14T15:32:44.480Z,5.90
2017-10-14T15:35:12.976Z,7.00
2017-10-14T15:37:40.548Z,5.20
2017-10-14T15:40:09.012Z,5.70
2017-10-14T15:42:36.533Z,6.23
2017-10-14T15:45:05.248Z,6.10
2017-10-14T15:47:32.767Z,9.67
2017-10-14T15:50:00.785Z,5.70
2017-10-14T15:52:28.446Z,5.77
2017-10-14T15:54:55.960Z,5.30
2017-10-14T15:57:23.492Z,6.23
2017-10-14T15:59:54.528Z,6.27
2017-10-14T16:02:24.176Z,5.47
2017-10-14T16:04:52.438Z,5.93
2017-10-14T16:07:21.754Z,5.50
2017-10-14T16:09:50.085Z,6.30
2017-10-14T16:12:18.161Z,5.97
2017-10-14T16:14:46.635Z,6.87
2017-10-14T16:17:14.498Z,6.27
2017-10-14T16:19:42.017Z,6.33
2017-10-14T16:22:09.597Z,7.20
2017-10-14T16:24:37.128Z,6.87
2017-10-14T16:27:05.546Z,6.03
2017-10-14T16:29:33.181Z,6.33
2017-10-14T16:32:00.703Z,6.10
2017-10-14T16:34:28.230Z,6.60
2017-10-14T16:36:55.958Z,6.17
2017-10-14T16:39:23.864Z,6.27
2017-10-14T16:41:51.408Z,6.70
2017-10-14T16:44:19.027Z,6.47
2017-10-14T16:46:46.684Z,6.03
2017-10-14T16:49:14.355Z,17.80
2017-10-14T16:51:42.079Z,21.80
2017-10-14T16:54:09.631Z,22.17
2017-10-14T16:56:37.166Z,10.87
2017-10-14T16:59:05.448Z,10.53
2017-10-14T17:01:33.005Z,16.67
2017-10-14T17:04:00.556Z,11.10
2017-10-14T17:06:28.315Z,8.07
2017-10-14T17:08:55.832Z,9.90
2017-10-14T17:11:23.365Z,12.30
2017-10-14T17:13:51.408Z,11.20
2017-10-14T17:16:18.981Z,13.27
2017-10-14T17:18:46.526Z,14.53
2017-10-14T17:21:14.308Z,10.70
2017-10-14T17:23:41.902Z,67.33
2017-10-14T17:26:09.467Z,18.57
2017-10-14T17:28:37.033Z,22.47
2017-10-14T17:31:04.567Z,46.50
2017-10-14T17:33:32.146Z,60.30
2017-10-14T17:35:59.838Z,46.03
2017-10-14T17:38:27.369Z,36.60
2017-10-14T17:40:55.073Z,47.47
2017-10-14T17:43:22.739Z,45.70
2017-10-14T17:45:50.511Z,44.43
2017-10-14T17:48:18.165Z,36.80
2017-10-14T17:50:45.920Z,27.07
2017-10-14T17:53:13.459Z,17.47
2017-10-14T17:55:41.043Z,14.37
2017-10-14T17:58:09.120Z,12.40
2017-10-14T18:00:36.869Z,13.40
2017-10-14T18:03:04.546Z,13.73
2017-10-14T18:05:32.489Z,12.70
2017-10-14T18:08:00.051Z,12.43
2017-10-14T18:10:27.837Z,11.43
2017-10-14T18:12:56.125Z,10.27
2017-10-14T18:15:24.033Z,9.50
2017-10-14T18:17:51.662Z,8.53
2017-10-14T18:20:19.814Z,10.53
2017-10-14T18:22:51.366Z,9.40
2017-10-14T18:25:18.959Z,9.07
2017-10-14T18:27:46.690Z,10.27
2017-10-14T18:30:15.067Z,11.10
2017-10-14T18:32:42.934Z,9.47
2017-10-14T18:35:10.596Z,11.10
2017-10-14T18:37:38.461Z,9.90
2017-10-14T18:40:07.146Z,9.20
2017-10-14T18:42:34.946Z,9.17
2017-10-14T18:45:02.682Z,10.30
2017-10-14T18:47:30.848Z,11.10
2017-10-14T18:49:58.714Z,9.50
2017-10-14T18:52:26.686Z,11.03
2017-10-14T18:54:54.662Z,10.40
2017-10-14T18:57:22.490Z,10.53
2017-10-14T18:59:50.285Z,10.23
2017-10-14T19:02:18.157Z,11.40
2017-10-14T19:04:45.762Z,11.70
2017-10-14T19:07:13.469Z,12.87
2017-10-14T19:09:42.776Z,12.50
2017-10-14T19:12:10.496Z,11.27
2017-10-14T19:14:38.243Z,11.23
2017-10-14T19:17:06.255Z,12.40
2017-10-14T19:19:34.015Z,10.50
2017-10-14T19:22:01.904Z,9.57
2017-10-14T19:24:29.527Z,12.40
2017-10-14T19:26:57.737Z,11.27
2017-10-14T19:29:25.411Z,12.40
2017-10-14T19:31:53.878Z,13.13
2017-10-14T19:34:21.443Z,15.43
2017-10-14T19:36:50.020Z,13.77
2017-10-14T19:39:18.092Z,15.73
2017-10-14T19:41:45.667Z,13.87
2017-10-14T19:44:13.254Z,12.60
2017-10-14T19:46:41.468Z,15.60
2017-10-14T19:49:09.144Z,13.77
2017-10-14T19:51:36.871Z,14.90
2017-10-14T19:54:04.878Z,13.77
2017-10-14T19:56:32.802Z,14.07
2017-10-14T19:59:00.510Z,13.80
2017-10-14T20:01:28.366Z,13.63
2017-10-14T20:03:55.887Z,12.50
2017-10-14T20:06:23.445Z,13.07
2017-10-14T20:08:51.464Z,13.00
2017-10-14T20:11:19.015Z,15.80
2017-10-14T20:13:46.771Z,11.97
2017-10-14T20:16:14.558Z,14.37
2017-10-14T20:18:42.107Z,15.97
2017-10-14T20:21:09.656Z,13.53
2017-10-14T20:23:37.596Z,15.43
2017-10-14T20:26:05.455Z,15.37
2017-10-14T20:28:33.268Z,16.23
2017-10-14T20:31:01.545Z,15.30
2017-10-14T20:33:29.489Z,14.70
2017-10-14T20:35:57.036Z,14.77
2017-10-14T20:38:24.872Z,12.97
2017-10-14T20:40:52.808Z,13.77
2017-10-14T20:43:20.660Z,12.50
2017-10-14T20:45:48.866Z,13.83
2017-10-14T20:48:16.706Z,16.30
2017-10-14T20:50:44.781Z,14.53
2017-10-14T20:53:12.750Z,15.23
2017-10-14T20:55:40.777Z,15.17
2017-10-14T20:58:08.718Z,14.00
2017-10-14T21:00:36.965Z,14.73
2017-10-14T21:03:04.931Z,15.00
2017-10-14T21:05:32.597Z,14.70
2017-10-14T21:08:00.970Z,17.20
2017-10-14T21:10:28.845Z,17.57
2017-10-14T21:12:56.807Z,16.73
2017-10-14T21:15:24.669Z,17.27
2017-10-14T21:17:52.438Z,20.20
2017-10-14T21:20:21.219Z,18.60
2017-10-14T21:22:49.091Z,18.60
2017-10-14T21:25:16.645Z,18.37
2017-10-14T21:27:44.298Z,18.03
2017-10-14T21:30:12.691Z,16.47
2017-10-14T21:32:40.362Z,17.58
2017-10-14T21:35:07.983Z,17.58
2017-10-14T21:37:35.780Z,18.73
2017-10-14T21:40:03.332Z,18.95
2017-10-14T21:42:30.899Z,19.23
2017-10-14T21:44:58.502Z,19.17
2017-10-14T21:47:26.121Z,18.33
2017-10-14T21:49:53.673Z,18.35
2017-10-14T21:52:21.271Z,16.35
2017-10-14T21:54:48.824Z,17.67
2017-10-14T21:57:16.443Z,15.35
2017-10-14T21:59:44.038Z,16.10
2017-10-14T22:02:11.982Z,17.80
2017-10-14T22:04:39.528Z,18.20
2017-10-14T22:07:07.352Z,16.90
2017-10-14T22:09:34.908Z,16.20
2017-10-14T22:12:02.452Z,14.68
2017-10-14T22:14:30.376Z,15.68
2017-10-14T22:16:58.803Z,14.82
2017-10-14T22:19:26.347Z,14.87
2017-10-14T22:21:54.642Z,15.68
2017-10-14T22:24:22.184Z,16.62
2017-10-14T22:26:49.720Z,16.87
2017-10-14T22:29:17.603Z,16.45
2017-10-14T22:31:45.180Z,17.10
2017-10-14T22:34:12.730Z,16.83
2017-10-14T22:36:40.458Z,16.62
2017-10-14T22:39:08.004Z,15.82
2017-10-14T22:41:35.536Z,16.50
2017-10-14T22:44:03.228Z,16.20
2017-10-14T22:46:30.766Z,16.30
2017-10-14T22:48:58.323Z,14.30
2017-10-14T22:51:26.330Z,12.07
2017-10-14T22:53:53.871Z,12.95
2017-10-14T22:56:21.439Z,13.30
2017-10-14T22:58:49.051Z,12.27
2017-10-14T23:01:16.600Z,14.60
2017-10-14T23:03:44.133Z,17.20
2017-10-14T23:06:11.970Z,18.45
2017-10-14T23:08:39.507Z,17.20
2017-10-14T23:11:07.056Z,17.45
2017-10-14T23:13:34.656Z,18.80
2017-10-14T23:16:02.200Z,20.75
2017-10-14T23:18:29.734Z,17.48
2017-10-14T23:20:57.547Z,17.95
2017-10-14T23:23:25.083Z,20.42
2017-10-14T23:25:52.619Z,20.42
2017-10-14T23:28:20.420Z,18.40
2017-10-14T23:30:47.953Z,19.65
2017-10-14T23:33:15.490Z,18.50
2017-10-14T23:35:43.307Z,19.90
2017-10-14T23:38:10.842Z,20.12
2017-10-14T23:40:38.392Z,19.83
2017-10-14T23:43:06.002Z,19.40
2017-10-14T23:45:33.556Z,20.92
2017-10-14T23:48:01.092Z,20.88
2017-10-14T23:50:28.685Z,19.95
2017-10-14T23:52:56.215Z,21.23
2017-10-14T23:55:23.743Z,20.85
2017-10-14T23:57:51.650Z,20.35
